createdAt,value
2018-10-12T00:00:56.066Z,40.30
2018-10-12T00:01:56.349Z,42.70
2018-10-12T00:02:56.995Z,42.90
2018-10-12T00:03:56.816Z,46.60
2018-10-12T00:04:58.122Z,45.70
2018-10-12T00:05:57.414Z,46.60
2018-10-12T00:06:57.713Z,40.00
2018-10-12T00:07:58.024Z,38.20
2018-10-12T00:08:58.321Z,40.00
2018-10-12T00:09:58.647Z,37.30
2018-10-12T00:10:58.929Z,36.40
2018-10-12T00:11:59.214Z,36.20
2018-10-12T00:12:59.794Z,38.30
2018-10-12T00:13:59.599Z,39.40
2018-10-12T00:14:59.896Z,37.90
2018-10-12T00:16:00.226Z,37.00
2018-10-12T00:17:00.529Z,39.20
2018-10-12T00:18:00.812Z,54.00
2018-10-12T00:19:01.113Z,61.90
2018-10-12T00:20:01.438Z,63.70
2018-10-12T00:21:01.421Z,65.30
2018-10-12T00:22:02.007Z,51.50
2018-10-12T00:23:02.135Z,47.90
2018-10-12T00:24:02.244Z,50.10
2018-10-12T00:25:02.344Z,47.40
2018-10-12T00:26:02.363Z,43.80
2018-10-12T00:27:02.250Z,46.80
2018-10-12T00:28:02.720Z,45.30
2018-10-12T00:29:03.250Z,47.80
2018-10-12T00:30:03.721Z,48.80
2018-10-12T00:31:03.934Z,46.40
2018-10-12T00:32:04.109Z,49.40
2018-10-12T00:33:04.240Z,47.90
2018-10-12T00:34:04.382Z,50.90
2018-10-12T00:35:04.591Z,54.50
2018-10-12T00:36:04.718Z,47.10
2018-10-12T00:37:04.843Z,47.20
2018-10-12T00:38:04.960Z,47.80
2018-10-12T00:39:05.093Z,43.30
2018-10-12T00:40:05.250Z,40.30
2018-10-12T00:41:05.305Z,37.90
2018-10-12T00:42:05.456Z,38.70
2018-10-12T00:43:05.576Z,43.60
2018-10-12T00:44:05.716Z,49.00
2018-10-12T00:45:05.889Z,44.00
2018-10-12T00:46:06.044Z,43.20
2018-10-12T00:47:06.116Z,44.50
2018-10-12T00:48:06.170Z,45.80
2018-10-12T00:49:06.231Z,44.20
2018-10-12T00:50:06.320Z,46.30
2018-10-12T00:51:06.409Z,48.30
2018-10-12T00:52:06.464Z,46.60
2018-10-12T00:53:06.566Z,41.70
2018-10-12T00:54:06.694Z,43.30
2018-10-12T00:55:06.777Z,47.20
2018-10-12T00:56:06.972Z,50.60
2018-10-12T00:57:07.187Z,45.20
2018-10-12T00:58:07.278Z,44.70
2018-10-12T00:59:07.341Z,46.90
2018-10-12T01:00:07.414Z,44.70
2018-10-12T01:01:07.718Z,48.70
2018-10-12T01:02:07.610Z,48.30
2018-10-12T01:03:08.169Z,49.00
2018-10-12T01:04:08.254Z,47.00
2018-10-12T01:05:08.344Z,43.10
2018-10-12T01:06:08.425Z,41.80
2018-10-12T01:07:08.499Z,43.70
2018-10-12T01:08:08.738Z,43.20
2018-10-12T01:09:08.849Z,43.10
2018-10-12T01:10:08.933Z,41.10
2018-10-12T01:11:09.041Z,43.30
2018-10-12T01:12:09.143Z,43.90
2018-10-12T01:13:09.196Z,43.10
2018-10-12T01:14:09.469Z,44.90
2018-10-12T01:15:09.720Z,46.30
2018-10-12T01:16:10.010Z,46.00
2018-10-12T01:17:10.267Z,46.30
2018-10-12T01:18:10.518Z,45.70
2018-10-12T01:19:10.784Z,46.50
2018-10-12T01:20:11.326Z,48.60
2018-10-12T01:21:11.162Z,47.90
2018-10-12T01:22:11.427Z,48.00
2018-10-12T01:23:11.760Z,48.50
2018-10-12T01:24:12.035Z,51.10
2018-10-12T01:25:12.307Z,50.60
2018-10-12T01:26:12.592Z,49.30
2018-10-12T01:27:12.876Z,49.10
2018-10-12T01:28:13.157Z,49.50
2018-10-12T01:29:13.416Z,50.30
2018-10-12T01:30:13.678Z,48.50
2018-10-12T01:31:13.986Z,49.10
2018-10-12T01:32:14.418Z,47.80
2018-10-12T01:33:14.840Z,49.70
2018-10-12T01:34:15.118Z,51.00
2018-10-12T01:35:15.718Z,48.40
2018-10-12T01:36:15.517Z,47.10
2018-10-12T01:37:15.777Z,47.80
2018-10-12T01:38:16.170Z,48.60
2018-10-12T01:39:16.435Z,47.30
2018-10-12T01:40:17.059Z,47.60
2018-10-12T01:41:16.836Z,47.30
2018-10-12T01:42:17.115Z,47.60
2018-10-12T01:43:17.390Z,48.20
2018-10-12T01:44:17.663Z,50.20
2018-10-12T01:45:18.054Z,47.80
2018-10-12T01:46:18.697Z,46.90
2018-10-12T01:47:18.852Z,45.70
2018-10-12T01:48:18.915Z,47.00
2018-10-12T01:49:19.046Z,47.00
2018-10-12T01:50:19.131Z,46.50
2018-10-12T01:51:19.304Z,48.00
2018-10-12T01:52:19.428Z,49.50
2018-10-12T01:53:19.542Z,49.00
2018-10-12T01:54:19.666Z,45.80
2018-10-12T01:55:19.778Z,47.40
2018-10-12T01:56:19.976Z,46.00
2018-10-12T01:57:20.099Z,45.80
2018-10-12T01:58:20.281Z,48.20
2018-10-12T01:59:20.392Z,47.30
2018-10-12T02:00:20.504Z,46.90
2018-10-12T02:01:20.660Z,47.50
2018-10-12T02:02:20.762Z,46.90
2018-10-12T02:03:20.913Z,49.40
2018-10-12T02:04:21.049Z,50.70
2018-10-12T02:05:21.109Z,54.50
2018-10-12T02:06:21.173Z,53.30
2018-10-12T02:07:21.284Z,49.30
2018-10-12T02:08:21.376Z,52.40
2018-10-12T02:09:21.456Z,54.10
2018-10-12T02:10:21.514Z,56.30
2018-10-12T02:11:21.568Z,56.10
2018-10-12T02:12:21.641Z,62.10
2018-10-12T02:13:21.768Z,58.10
2018-10-12T02:14:21.826Z,57.80
2018-10-12T02:15:21.941Z,58.50
2018-10-12T02:16:22.065Z,57.30
2018-10-12T02:17:22.160Z,58.90
2018-10-12T02:18:22.430Z,57.20
2018-10-12T02:19:22.375Z,56.50
2018-10-12T02:20:22.471Z,57.70
2018-10-12T02:21:22.536Z,56.30
2018-10-12T02:22:22.594Z,55.30
2018-10-12T02:23:25.156Z,52.90
2018-10-12T02:24:22.780Z,47.80
2018-10-12T02:25:22.885Z,47.00
2018-10-12T02:26:25.460Z,47.10
2018-10-12T02:28:23.416Z,48.60
2018-10-12T02:29:23.685Z,49.20
2018-10-12T02:30:23.792Z,49.10
2018-10-12T02:31:23.872Z,49.00
2018-10-12T02:32:23.949Z,49.50
2018-10-12T02:33:24.035Z,48.00
2018-10-12T02:34:24.105Z,47.70
2018-10-12T02:35:24.084Z,46.30
2018-10-12T02:36:24.343Z,40.40
2018-10-12T02:37:24.606Z,41.90
2018-10-12T02:38:24.904Z,45.90
2018-10-12T02:39:24.875Z,45.60
2018-10-12T02:40:25.140Z,46.90
2018-10-12T02:41:25.399Z,47.40
2018-10-12T02:42:25.974Z,49.70
2018-10-12T02:43:25.728Z,51.40
2018-10-12T02:44:25.992Z,49.50
2018-10-12T02:45:26.243Z,50.10
2018-10-12T02:46:26.513Z,49.80
2018-10-12T02:47:26.775Z,49.30
2018-10-12T02:48:27.022Z,53.20
2018-10-12T02:49:27.345Z,54.40
2018-10-12T02:50:27.610Z,45.40
2018-10-12T02:51:27.874Z,48.00
2018-10-12T02:52:28.186Z,47.80
2018-10-12T02:53:28.447Z,45.60
2018-10-12T02:54:28.716Z,44.30
2018-10-12T02:55:28.975Z,44.30
2018-10-12T02:56:29.243Z,42.60
2018-10-12T02:57:29.507Z,41.20
2018-10-12T02:58:29.756Z,41.40
2018-10-12T02:59:30.028Z,44.70
2018-10-12T03:00:30.288Z,44.30
2018-10-12T03:01:30.589Z,45.00
2018-10-12T03:02:30.954Z,45.00
2018-10-12T03:03:31.222Z,45.80
2018-10-12T03:04:31.680Z,46.90
2018-10-12T03:05:32.005Z,42.50
2018-10-12T03:07:32.284Z,37.10
2018-10-12T03:08:32.534Z,34.60
2018-10-12T03:09:32.587Z,39.10
2018-10-12T03:10:32.860Z,40.60
2018-10-12T03:11:33.402Z,43.90
2018-10-12T03:12:33.468Z,43.50
2018-10-12T03:13:33.609Z,44.80
2018-10-12T03:14:33.678Z,48.50
2018-10-12T03:15:33.738Z,48.50
2018-10-12T03:17:33.904Z,45.90
2018-10-12T03:18:34.018Z,41.10
2018-10-12T03:19:34.138Z,39.30
2018-10-12T03:20:34.273Z,34.20
2018-10-12T03:21:34.452Z,39.10
2018-10-12T03:22:34.593Z,42.10
2018-10-12T03:23:41.266Z,45.90
2018-10-12T03:24:47.158Z,43.40
2018-10-12T03:25:35.336Z,41.80
2018-10-12T03:26:35.500Z,40.70
2018-10-12T03:27:35.619Z,41.10
2018-10-12T03:28:36.041Z,40.00
2018-10-12T03:29:36.388Z,40.80
2018-10-12T03:30:36.475Z,43.70
2018-10-12T03:31:36.324Z,47.50
2018-10-12T03:32:36.937Z,50.40
2018-10-12T03:33:36.976Z,52.50
2018-10-12T03:34:37.091Z,53.60
2018-10-12T03:35:37.115Z,48.50
2018-10-12T03:36:37.197Z,51.00
2018-10-12T03:37:37.271Z,47.90
2018-10-12T03:38:37.343Z,49.50
2018-10-12T03:39:37.442Z,45.20
2018-10-12T03:40:37.505Z,49.80
2018-10-12T03:41:37.576Z,52.70
2018-10-12T03:42:37.650Z,48.10
2018-10-12T03:43:37.875Z,40.20
2018-10-12T03:44:37.967Z,46.50
2018-10-12T03:45:37.995Z,48.80
2018-10-12T03:46:38.110Z,51.10
2018-10-12T03:47:38.175Z,47.20
2018-10-12T03:48:38.243Z,46.10
2018-10-12T03:49:38.302Z,48.80
2018-10-12T03:50:38.388Z,46.00
2018-10-12T03:51:38.603Z,47.00
2018-10-12T03:52:38.672Z,47.10
2018-10-12T03:53:38.761Z,48.20
2018-10-12T03:54:38.919Z,48.40
2018-10-12T03:55:38.992Z,51.60
2018-10-12T03:56:39.118Z,53.30
2018-10-12T03:57:39.242Z,52.60
2018-10-12T03:58:39.159Z,53.80
2018-10-12T03:59:39.581Z,49.80
2018-10-12T04:00:39.833Z,46.40
2018-10-12T04:01:40.107Z,46.50
2018-10-12T04:02:40.392Z,47.50
2018-10-12T04:03:40.631Z,47.40
2018-10-12T04:04:41.078Z,47.90
2018-10-12T04:05:41.426Z,42.00
2018-10-12T04:06:41.934Z,38.50
2018-10-12T04:07:41.733Z,35.10
2018-10-12T04:08:42.114Z,36.30
2018-10-12T04:09:42.682Z,40.30
2018-10-12T04:10:42.515Z,43.20
2018-10-12T04:11:42.786Z,38.40
2018-10-12T04:12:43.221Z,36.80
2018-10-12T04:13:43.350Z,41.80
2018-10-12T04:14:43.617Z,47.50
2018-10-12T04:15:43.917Z,49.90
2018-10-12T04:16:44.455Z,51.90
2018-10-12T04:17:44.220Z,54.10
2018-10-12T04:18:44.716Z,57.10
2018-10-12T04:19:45.203Z,62.10
2018-10-12T04:20:44.990Z,61.80
2018-10-12T04:21:45.267Z,62.20
2018-10-12T04:22:45.520Z,60.30
2018-10-12T04:23:45.832Z,57.60
2018-10-12T04:24:46.098Z,58.10
2018-10-12T04:25:46.547Z,58.10
2018-10-12T04:26:46.840Z,56.10
2018-10-12T04:27:47.104Z,51.40
2018-10-12T04:28:47.535Z,52.10
2018-10-12T04:29:47.804Z,54.40
2018-10-12T04:30:48.312Z,51.60
2018-10-12T04:31:48.364Z,51.50
2018-10-12T04:32:48.427Z,49.30
2018-10-12T04:33:48.477Z,50.20
2018-10-12T04:34:48.627Z,51.50
2018-10-12T04:36:48.655Z,46.10
2018-10-12T04:37:48.817Z,46.70
2018-10-12T04:38:48.910Z,47.00
2018-10-12T04:39:49.245Z,49.40
2018-10-12T04:40:49.335Z,49.60
2018-10-12T04:41:49.528Z,47.10
2018-10-12T04:42:49.617Z,52.00
2018-10-12T04:43:49.738Z,54.40
2018-10-12T04:44:49.997Z,50.70
2018-10-12T04:45:50.161Z,48.20
2018-10-12T04:46:50.330Z,50.40
2018-10-12T04:47:50.473Z,45.90
2018-10-12T04:48:50.599Z,46.20
2018-10-12T04:49:50.974Z,44.70
2018-10-12T04:50:51.120Z,45.10
2018-10-12T04:51:51.246Z,46.60
2018-10-12T04:52:51.366Z,47.70
2018-10-12T04:53:51.533Z,49.80
2018-10-12T04:54:51.620Z,50.90
2018-10-12T04:55:51.796Z,47.50
2018-10-12T04:56:52.213Z,46.70
2018-10-12T04:57:52.364Z,47.00
2018-10-12T04:58:52.448Z,51.40
2018-10-12T04:59:52.520Z,51.20
2018-10-12T05:00:52.765Z,54.10
2018-10-12T05:01:52.715Z,57.60
2018-10-12T05:02:52.783Z,58.30
2018-10-12T05:03:52.859Z,51.10
2018-10-12T05:04:52.909Z,51.90
2018-10-12T05:05:52.971Z,51.00
2018-10-12T05:06:53.025Z,46.90
2018-10-12T05:07:53.212Z,43.80
2018-10-12T05:08:53.165Z,44.10
2018-10-12T05:09:53.266Z,47.50
2018-10-12T05:10:53.357Z,52.90
2018-10-12T05:11:53.111Z,51.70
2018-10-12T05:12:53.732Z,52.30
2018-10-12T05:13:53.809Z,50.20
2018-10-12T05:14:53.880Z,45.90
2018-10-12T05:15:53.829Z,47.20
2018-10-12T05:16:54.162Z,43.90
2018-10-12T05:17:54.442Z,45.20
2018-10-12T05:18:54.740Z,49.70
2018-10-12T05:19:54.994Z,49.50
2018-10-12T05:20:55.541Z,51.80
2018-10-12T05:21:55.493Z,48.60
2018-10-12T05:22:55.994Z,50.50
2018-10-12T05:23:56.004Z,51.20
2018-10-12T05:24:56.529Z,45.20
2018-10-12T05:25:56.323Z,50.70
2018-10-12T05:26:56.702Z,53.30
2018-10-12T05:27:57.100Z,49.00
2018-10-12T05:28:57.462Z,53.70
2018-10-12T05:29:57.786Z,54.50
2018-10-12T05:30:58.009Z,53.60
2018-10-12T05:31:58.269Z,56.10
2018-10-12T05:32:58.867Z,56.90
2018-10-12T05:33:58.637Z,52.60
2018-10-12T05:34:59.160Z,54.30
2018-10-12T05:35:58.994Z,53.60
2018-10-12T05:36:59.252Z,53.70
2018-10-12T05:37:59.625Z,51.40
2018-10-12T05:38:59.610Z,51.00
2018-10-12T05:39:59.884Z,52.60
2018-10-12T05:41:00.158Z,51.00
2018-10-12T05:42:00.510Z,51.60
2018-10-12T05:43:01.055Z,49.70
2018-10-12T05:44:00.826Z,48.50
2018-10-12T05:45:00.952Z,47.40
2018-10-12T05:46:01.311Z,48.50
2018-10-12T05:47:01.682Z,47.20
2018-10-12T05:48:02.147Z,46.70
2018-10-12T05:49:02.409Z,46.90
2018-10-12T05:50:02.738Z,47.80
2018-10-12T05:51:02.703Z,47.80
2018-10-12T05:52:03.526Z,47.10
2018-10-12T05:53:03.691Z,46.30
2018-10-12T05:54:03.870Z,46.70
2018-10-12T05:55:04.000Z,47.40
2018-10-12T05:56:04.416Z,47.50
2018-10-12T05:57:04.785Z,45.10
2018-10-12T05:58:04.850Z,46.10
2018-10-12T05:59:05.036Z,45.50
2018-10-12T06:00:05.175Z,45.00
2018-10-12T06:01:05.409Z,45.00
2018-10-12T06:02:05.480Z,45.20
2018-10-12T06:03:05.708Z,43.60
2018-10-12T06:04:05.824Z,43.00
2018-10-12T06:05:06.408Z,41.90
2018-10-12T06:06:06.369Z,42.40
2018-10-12T06:07:06.626Z,42.70
2018-10-12T06:08:06.748Z,41.50
2018-10-12T06:09:06.916Z,41.70
2018-10-12T06:10:07.094Z,40.70
2018-10-12T06:11:07.207Z,42.20
2018-10-12T06:12:07.177Z,41.10
2018-10-12T06:13:07.361Z,41.90
2018-10-12T06:14:07.433Z,41.60
2018-10-12T06:15:07.509Z,42.30
2018-10-12T06:16:07.575Z,39.30
2018-10-12T06:17:07.656Z,38.80
2018-10-12T06:18:07.710Z,39.30
2018-10-12T06:19:07.935Z,41.20
2018-10-12T06:20:08.027Z,40.40
2018-10-12T06:21:07.914Z,41.50
2018-10-12T06:22:08.355Z,41.50
2018-10-12T06:23:08.711Z,40.50
2018-10-12T06:24:08.458Z,40.50
2018-10-12T06:25:09.061Z,38.50
2018-10-12T06:26:09.152Z,36.00
2018-10-12T06:27:09.188Z,34.60
2018-10-12T06:28:08.941Z,34.70
2018-10-12T06:29:09.325Z,35.20
2018-10-12T06:30:09.585Z,33.90
2018-10-12T06:31:09.869Z,34.80
2018-10-12T06:32:10.107Z,33.10
2018-10-12T06:33:10.394Z,33.90
2018-10-12T06:34:10.889Z,31.60
2018-10-12T06:35:11.432Z,33.20
2018-10-12T06:36:11.207Z,33.20
2018-10-12T06:37:11.514Z,34.70
2018-10-12T06:38:11.789Z,33.80
2018-10-12T06:39:12.083Z,33.20
2018-10-12T06:40:12.355Z,35.00
2018-10-12T06:41:12.633Z,34.20
2018-10-12T06:42:12.902Z,32.30
2018-10-12T06:43:13.227Z,34.00
2018-10-12T06:44:13.513Z,32.50
2018-10-12T06:45:14.014Z,34.90
2018-10-12T06:46:14.104Z,35.60
2018-10-12T06:47:14.346Z,35.70
2018-10-12T06:48:14.349Z,35.20
2018-10-12T06:49:14.622Z,36.40
2018-10-12T06:50:14.981Z,34.20
2018-10-12T06:51:15.256Z,34.70
2018-10-12T06:52:15.518Z,35.70
2018-10-12T06:53:15.831Z,34.90
2018-10-12T06:54:16.130Z,36.90
2018-10-12T06:55:16.556Z,35.40
2018-10-12T06:56:16.901Z,36.70
2018-10-12T06:57:17.182Z,34.60
2018-10-12T06:58:17.559Z,33.50
2018-10-12T06:59:17.851Z,32.90
2018-10-12T07:00:18.441Z,33.10
2018-10-12T07:01:18.505Z,34.40
2018-10-12T07:02:18.641Z,35.10
2018-10-12T07:03:18.723Z,35.40
2018-10-12T07:04:18.835Z,34.30
2018-10-12T07:05:19.012Z,33.80
2018-10-12T07:06:19.159Z,31.50
2018-10-12T07:07:19.271Z,33.40
2018-10-12T07:08:19.430Z,32.50
2018-10-12T07:09:19.572Z,30.70
2018-10-12T07:10:19.741Z,29.90
2018-10-12T07:11:19.876Z,29.90
2018-10-12T07:12:20.053Z,30.80
2018-10-12T07:13:20.221Z,30.10
2018-10-12T07:14:20.402Z,30.40
2018-10-12T07:15:20.567Z,28.70
2018-10-12T07:16:20.723Z,29.70
2018-10-12T07:17:20.873Z,28.40
2018-10-12T07:18:21.050Z,30.00
2018-10-12T07:19:21.165Z,29.30
2018-10-12T07:20:21.237Z,29.30
2018-10-12T07:21:21.279Z,30.10
2018-10-12T07:22:21.400Z,28.20
2018-10-12T07:23:21.494Z,28.00
2018-10-12T07:24:21.615Z,28.80
2018-10-12T07:25:21.799Z,29.00
2018-10-12T07:26:21.916Z,31.10
2018-10-12T07:27:22.024Z,29.30
2018-10-12T07:28:22.134Z,28.30
2018-10-12T07:29:22.246Z,27.90
2018-10-12T07:30:22.389Z,28.60
2018-10-12T07:31:22.491Z,28.40
2018-10-12T07:32:22.554Z,27.60
2018-10-12T07:33:22.629Z,27.50
2018-10-12T07:34:22.703Z,28.60
2018-10-12T07:35:22.781Z,27.50
2018-10-12T07:36:22.862Z,28.00
2018-10-12T07:37:23.027Z,27.30
2018-10-12T07:38:23.056Z,28.70
2018-10-12T07:39:23.315Z,27.20
2018-10-12T07:40:23.463Z,28.40
2018-10-12T07:41:23.535Z,27.70
2018-10-12T07:42:23.698Z,27.10
2018-10-12T07:43:23.793Z,26.10
2018-10-12T07:44:23.862Z,27.30
2018-10-12T07:45:23.941Z,25.90
2018-10-12T07:46:24.025Z,26.30
2018-10-12T07:47:24.208Z,27.40
2018-10-12T07:48:24.128Z,25.90
2018-10-12T07:49:24.168Z,25.10
2018-10-12T07:50:24.169Z,25.40
2018-10-12T07:51:24.470Z,25.70
2018-10-12T07:52:24.756Z,25.50
2018-10-12T07:53:25.262Z,24.80
2018-10-12T07:54:25.493Z,23.80
2018-10-12T07:55:26.005Z,24.70
2018-10-12T07:56:26.257Z,23.00
2018-10-12T07:57:26.529Z,23.50
2018-10-12T07:58:26.928Z,23.40
2018-10-12T07:59:27.202Z,23.70
2018-10-12T08:00:27.516Z,24.20
2018-10-12T08:01:27.747Z,22.80
2018-10-12T08:02:28.439Z,22.00
2018-10-12T08:03:28.413Z,22.70
2018-10-12T08:04:28.935Z,22.30
2018-10-12T08:05:28.755Z,23.10
2018-10-12T08:06:29.048Z,23.10
2018-10-12T08:07:29.259Z,22.50
2018-10-12T08:08:29.555Z,21.80
2018-10-12T08:09:29.863Z,22.60
2018-10-12T08:10:30.250Z,24.40
2018-10-12T08:11:30.607Z,22.80
2018-10-12T08:12:30.887Z,21.90
2018-10-12T08:13:31.399Z,21.60
2018-10-12T08:14:31.620Z,23.30
2018-10-12T08:15:31.916Z,22.80
2018-10-12T08:16:32.282Z,22.40
2018-10-12T08:17:32.536Z,23.20
2018-10-12T08:18:32.822Z,22.80
2018-10-12T08:19:33.347Z,22.70
2018-10-12T08:20:34.164Z,23.30
2018-10-12T08:21:34.062Z,23.20
2018-10-12T08:22:34.251Z,22.80
2018-10-12T08:23:34.375Z,23.30
2018-10-12T08:24:34.436Z,22.70
2018-10-12T08:25:34.590Z,23.60
2018-10-12T08:26:34.797Z,22.70
2018-10-12T08:27:34.965Z,22.20
2018-10-12T08:29:35.184Z,23.20
2018-10-12T08:30:35.340Z,22.20
2018-10-12T08:31:35.534Z,22.80
2018-10-12T08:32:35.654Z,21.70
2018-10-12T08:33:35.886Z,22.60
2018-10-12T08:34:35.949Z,21.90
2018-10-12T08:35:36.053Z,22.70
2018-10-12T08:36:36.133Z,22.70
2018-10-12T08:37:36.490Z,21.80
2018-10-12T08:38:36.576Z,23.50
2018-10-12T08:39:36.671Z,22.40
2018-10-12T08:40:36.795Z,22.80
2018-10-12T08:41:36.976Z,22.70
2018-10-12T08:42:37.118Z,21.70
2018-10-12T08:43:37.266Z,22.20
2018-10-12T08:44:37.377Z,22.60
2018-10-12T08:45:37.468Z,22.30
2018-10-12T08:46:37.556Z,22.20
2018-10-12T08:47:37.644Z,21.80
2018-10-12T08:48:37.714Z,22.20
2018-10-12T08:49:37.798Z,21.20
2018-10-12T08:50:37.867Z,20.60
2018-10-12T08:51:37.936Z,21.10
2018-10-12T08:52:37.996Z,22.80
2018-10-12T08:53:38.061Z,20.80
2018-10-12T08:54:38.142Z,21.20
2018-10-12T08:55:38.262Z,21.40
2018-10-12T08:56:38.301Z,21.10
2018-10-12T08:57:38.525Z,21.40
2018-10-12T08:58:38.612Z,20.80
2018-10-12T08:59:38.693Z,20.90
2018-10-12T09:00:38.764Z,20.70
2018-10-12T09:01:38.833Z,21.90
2018-10-12T09:02:38.874Z,20.80
2018-10-12T09:03:38.684Z,21.00
2018-10-12T09:04:39.434Z,22.10
2018-10-12T09:05:39.462Z,21.00
2018-10-12T09:06:39.330Z,19.60
2018-10-12T09:07:39.680Z,18.60
2018-10-12T09:08:39.997Z,19.70
2018-10-12T09:09:40.363Z,19.00
2018-10-12T09:10:40.808Z,19.00
2018-10-12T09:11:41.116Z,18.70
2018-10-12T09:12:41.370Z,18.30
2018-10-12T09:13:41.647Z,17.90
2018-10-12T09:14:42.108Z,17.00
2018-10-12T09:15:42.515Z,17.80
2018-10-12T09:16:43.009Z,18.00
2018-10-12T09:17:43.283Z,18.40
2018-10-12T09:18:43.680Z,16.90
2018-10-12T09:19:43.962Z,17.60
2018-10-12T09:20:44.314Z,17.80
2018-10-12T09:21:44.532Z,17.60
2018-10-12T09:22:44.966Z,18.30
2018-10-12T09:23:45.430Z,18.00
2018-10-12T09:24:46.017Z,17.70
2018-10-12T09:25:45.796Z,17.20
2018-10-12T09:26:46.094Z,17.80
2018-10-12T09:27:46.347Z,16.80
2018-10-12T09:28:46.639Z,17.20
2018-10-12T09:29:46.960Z,16.90
2018-10-12T09:30:46.956Z,17.20
2018-10-12T09:31:47.220Z,16.20
2018-10-12T09:32:47.489Z,16.30
2018-10-12T09:33:47.779Z,16.60
2018-10-12T09:34:48.605Z,16.60
2018-10-12T09:35:48.716Z,16.60
2018-10-12T09:36:48.868Z,15.80
2018-10-12T09:37:48.962Z,15.20
2018-10-12T09:38:49.094Z,16.10
2018-10-12T09:39:49.214Z,15.60
2018-10-12T09:40:49.328Z,15.80
2018-10-12T09:41:49.534Z,14.50
2018-10-12T09:42:49.683Z,14.90
2018-10-12T09:43:49.833Z,13.60
2018-10-12T09:44:50.063Z,13.90
2018-10-12T09:45:50.200Z,14.40
2018-10-12T09:46:50.365Z,13.70
2018-10-12T09:47:50.533Z,11.00
2018-10-12T09:48:50.687Z,10.50
2018-10-12T09:49:50.811Z,11.10
2018-10-12T09:50:50.923Z,11.80
2018-10-12T09:51:51.044Z,12.90
2018-10-12T09:52:51.144Z,12.60
2018-10-12T09:53:51.304Z,12.40
2018-10-12T09:54:51.429Z,12.40
2018-10-12T09:55:51.592Z,11.60
2018-10-12T09:56:51.660Z,11.10
2018-10-12T09:57:51.882Z,11.60
2018-10-12T09:58:52.008Z,11.00
2018-10-12T09:59:52.146Z,10.40
2018-10-12T10:00:52.510Z,9.90
2018-10-12T10:01:52.828Z,9.70
2018-10-12T10:02:52.928Z,10.00
2018-10-12T10:03:52.839Z,10.00
2018-10-12T10:04:53.575Z,10.30
2018-10-12T10:05:54.109Z,9.20
2018-10-12T10:06:54.285Z,9.30
2018-10-12T10:07:54.419Z,10.30
2018-10-12T10:08:54.789Z,10.30
2018-10-12T10:09:55.132Z,9.60
2018-10-12T10:10:55.402Z,10.20
2018-10-12T10:11:55.671Z,9.50
2018-10-12T10:12:55.833Z,9.30
2018-10-12T10:14:56.486Z,8.70
2018-10-12T10:15:56.254Z,8.80
2018-10-12T10:16:56.601Z,8.90
2018-10-12T10:17:56.953Z,8.50
2018-10-12T10:18:57.213Z,7.60
2018-10-12T10:19:57.474Z,7.00
2018-10-12T10:20:57.686Z,7.50
2018-10-12T10:21:57.965Z,7.10
2018-10-12T10:22:58.222Z,6.90
2018-10-12T10:23:58.517Z,6.90
2018-10-12T10:24:59.037Z,7.20
2018-10-12T10:25:59.313Z,7.30
2018-10-12T10:26:59.608Z,7.20
2018-10-12T10:27:59.879Z,7.00
2018-10-12T10:29:00.316Z,6.50
2018-10-12T10:30:00.609Z,7.20
2018-10-12T10:32:00.953Z,7.70
2018-10-12T10:33:01.231Z,6.90
2018-10-12T10:34:01.496Z,7.00
2018-10-12T10:35:01.882Z,6.80
2018-10-12T10:36:02.227Z,7.00
2018-10-12T10:37:02.627Z,6.70
2018-10-12T10:38:02.738Z,7.30
2018-10-12T10:39:03.149Z,6.30
2018-10-12T10:40:03.456Z,6.50
2018-10-12T10:41:03.638Z,6.50
2018-10-12T10:42:03.795Z,6.20
2018-10-12T10:43:03.943Z,6.60
2018-10-12T10:44:04.051Z,6.20
2018-10-12T10:45:04.242Z,6.40
2018-10-12T10:46:04.373Z,5.90
2018-10-12T10:47:04.523Z,5.80
2018-10-12T10:48:04.722Z,5.40
2018-10-12T10:49:04.938Z,5.70
2018-10-12T10:50:05.067Z,5.40
2018-10-12T10:51:05.245Z,6.00
2018-10-12T10:52:05.439Z,6.00
2018-10-12T10:53:05.568Z,6.60
2018-10-12T10:54:05.764Z,6.80
2018-10-12T10:55:05.869Z,6.80
2018-10-12T10:56:06.019Z,6.60
2018-10-12T10:57:06.168Z,6.40
2018-10-12T10:58:06.370Z,6.40
2018-10-12T10:59:06.421Z,6.40
2018-10-12T11:00:06.535Z,6.00
2018-10-12T11:01:06.728Z,5.70
2018-10-12T11:02:06.856Z,6.30
2018-10-12T11:03:07.045Z,6.20
2018-10-12T11:04:07.140Z,6.30
2018-10-12T11:05:07.441Z,5.90
2018-10-12T11:06:07.259Z,5.90
2018-10-12T11:07:07.781Z,5.30
2018-10-12T11:08:07.838Z,5.30
2018-10-12T11:09:07.908Z,5.80
2018-10-12T11:10:08.149Z,5.90
2018-10-12T11:11:08.748Z,5.80
2018-10-12T11:12:08.754Z,6.00
2018-10-12T11:13:09.333Z,6.10
2018-10-12T11:14:09.346Z,5.60
2018-10-12T11:15:09.362Z,5.50
2018-10-12T11:16:09.109Z,5.80
2018-10-12T11:17:09.524Z,6.20
2018-10-12T11:18:09.780Z,5.90
2018-10-12T11:19:10.042Z,6.10
2018-10-12T11:21:10.330Z,6.10
2018-10-12T11:22:10.618Z,5.80
2018-10-12T11:23:10.886Z,5.50
2018-10-12T11:25:11.174Z,5.50
2018-10-12T11:26:11.553Z,5.40
2018-10-12T11:27:11.873Z,5.30
2018-10-12T11:28:12.170Z,6.00
2018-10-12T11:29:12.462Z,5.20
2018-10-12T11:30:12.863Z,5.60
2018-10-12T11:31:13.144Z,5.30
2018-10-12T11:32:13.430Z,5.50
2018-10-12T11:33:13.707Z,5.50
2018-10-12T11:34:14.059Z,5.20
2018-10-12T11:35:14.743Z,4.50
2018-10-12T11:36:14.555Z,4.50
2018-10-12T11:37:14.859Z,4.50
2018-10-12T11:38:15.182Z,4.40
2018-10-12T11:39:15.393Z,4.90
2018-10-12T11:40:15.972Z,4.60
2018-10-12T11:41:15.808Z,4.70
2018-10-12T11:42:16.104Z,4.40
2018-10-12T11:43:16.425Z,4.00
2018-10-12T11:44:16.747Z,4.60
2018-10-12T11:45:17.345Z,4.90
2018-10-12T11:46:17.281Z,5.00
2018-10-12T11:47:17.540Z,4.60
2018-10-12T11:48:17.806Z,5.00
2018-10-12T11:49:18.327Z,4.80
2018-10-12T11:50:18.947Z,4.50
2018-10-12T11:51:19.150Z,5.10
2018-10-12T11:52:19.805Z,5.10
2018-10-12T11:53:19.476Z,4.60
2018-10-12T11:54:19.880Z,4.60
2018-10-12T11:55:20.098Z,4.70
2018-10-12T11:56:20.256Z,4.80
2018-10-12T11:57:20.405Z,4.60
2018-10-12T11:58:20.543Z,4.70
2018-10-12T11:59:20.749Z,4.70
2018-10-12T12:00:21.238Z,4.70
2018-10-12T12:01:21.344Z,4.40
2018-10-12T12:02:21.551Z,4.40
2018-10-12T12:03:21.568Z,4.30
2018-10-12T12:04:21.404Z,4.40
2018-10-12T12:05:22.078Z,4.70
2018-10-12T12:06:22.096Z,4.50
2018-10-12T12:07:22.366Z,4.30
2018-10-12T12:08:22.337Z,4.30
2018-10-12T12:09:22.420Z,4.30
2018-10-12T12:10:22.510Z,4.10
2018-10-12T12:11:22.591Z,4.60
2018-10-12T12:12:22.665Z,4.00
2018-10-12T12:13:22.801Z,4.00
2018-10-12T12:14:22.775Z,4.00
2018-10-12T12:15:22.853Z,3.90
2018-10-12T12:16:22.918Z,4.10
2018-10-12T12:17:23.019Z,4.00
2018-10-12T12:18:23.092Z,3.70
2018-10-12T12:19:23.231Z,3.70
2018-10-12T12:20:22.925Z,3.80
2018-10-12T12:21:23.499Z,4.20
2018-10-12T12:22:23.571Z,3.70
2018-10-12T12:23:23.707Z,3.60
2018-10-12T12:24:23.782Z,3.50
2018-10-12T12:25:23.982Z,3.80
2018-10-12T12:26:23.878Z,3.40
2018-10-12T12:27:23.900Z,3.50
2018-10-12T12:28:24.205Z,3.90
2018-10-12T12:29:24.613Z,3.80
2018-10-12T12:30:24.878Z,3.90
2018-10-12T12:31:25.317Z,3.90
2018-10-12T12:32:25.771Z,3.70
2018-10-12T12:33:26.117Z,3.90
2018-10-12T12:34:26.434Z,3.80
2018-10-12T12:35:27.416Z,4.00
2018-10-12T12:36:26.779Z,3.90
2018-10-12T12:37:27.050Z,4.00
2018-10-12T12:38:27.547Z,4.00
2018-10-12T12:39:27.848Z,4.10
2018-10-12T12:40:28.125Z,3.90
2018-10-12T12:41:28.466Z,3.70
2018-10-12T12:42:28.720Z,3.90
2018-10-12T12:43:29.200Z,3.50
2018-10-12T12:44:29.487Z,3.90
2018-10-12T12:45:29.936Z,4.00
2018-10-12T12:46:30.231Z,4.10
2018-10-12T12:47:30.576Z,3.90
2018-10-12T12:48:30.995Z,3.90
2018-10-12T12:49:31.262Z,3.80
2018-10-12T12:50:31.349Z,3.80
2018-10-12T12:51:31.647Z,3.70
2018-10-12T12:52:31.933Z,3.90
2018-10-12T12:53:32.245Z,4.00
2018-10-12T12:54:32.584Z,4.30
2018-10-12T12:55:32.989Z,3.70
2018-10-12T12:56:33.613Z,3.80
2018-10-12T12:57:33.751Z,3.50
2018-10-12T12:58:33.899Z,3.80
2018-10-12T12:59:34.036Z,3.70
2018-10-12T13:00:34.226Z,3.30
2018-10-12T13:01:34.312Z,3.40
2018-10-12T13:02:34.455Z,3.50
2018-10-12T13:03:34.569Z,3.80
2018-10-12T13:04:34.697Z,3.60
2018-10-12T13:05:34.746Z,3.90
2018-10-12T13:06:35.076Z,3.60
2018-10-12T13:07:35.136Z,3.50
2018-10-12T13:08:35.295Z,3.30
2018-10-12T13:09:35.435Z,3.60
2018-10-12T13:10:35.602Z,4.00